Terminal Aerodrome Forecast
Issued by NWS

Home | Current Version | Previous Version | Graphics & Text | Print | Product List | Glossary On
Versions: 1 2 3 4 5 6 7 8 9 10 11 12 13
451
FTUS43 KICT 201740
TAFSLN
TAF
KSLN 201740Z 2018/2118 21017G25KT P6SM FEW250
     FM210000 20012KT P6SM FEW250
     FM210600 25007KT P6SM BKN250
     FM210900 29007KT P6SM BKN150
     FM211200 35012KT P6SM BKN070
     FM211500 35019G27KT P6SM BKN070=

USA.gov is the U.S. government's official web portal to all federal, state and local government web resources and services.